Time;durP1;ratioP1;P1;durP2;ratioP2;P2;SDS_P1;SDS_P2;PMS_P1;PMS_P2;Temp;Humidity;BMP_temperature;BMP_pressure;BME280_temperature;BME280_humidity;BME280_pressure;Samples;Min_cycle;Max_cycle;Signal;HPM_P1;HPM_P2
2022/05/12 00:00:56;;;;;;;;;;;20.80;44.50;;;;;;4998931;28;19968;-50
2022/05/12 00:03:23;;;;;;;;;;;20.80;44.50;;;;;;5000122;28;20021;-50
2022/05/12 00:05:49;;;;;;;;;;;20.80;45.10;;;;;;4979536;28;19925;-54
2022/05/12 00:08:16;;;;;;;;;;;20.70;44.50;;;;;;4992188;28;19922;-51
2022/05/12 00:10:44;;;;;;;;;;;20.80;44.50;;;;;;4995800;28;20428;-53
2022/05/12 00:13:10;;;;;;;;;;;20.80;44.50;;;;;;5005628;28;20385;-48
2022/05/12 00:15:37;;;;;;;;;;;20.70;45.10;;;;;;5015183;28;19983;-51
2022/05/12 00:18:04;;;;;;;;;;;20.70;44.50;;;;;;4985571;28;19928;-51
2022/05/12 00:20:31;;;;;;;;;;;20.70;44.50;;;;;;4995376;28;19953;-51
2022/05/12 00:23:06;;;;;;;;;;;20.70;44.50;;;;;;4996895;28;19968;-54
2022/05/12 00:25:32;;;;;;;;;;;20.70;44.60;;;;;;4995281;28;20024;-48
2022/05/12 00:28:00;;;;;;;;;;;20.70;44.60;;;;;;4984191;28;19965;-53
2022/05/12 00:30:27;;;;;;;;;;;20.70;44.70;;;;;;4995240;28;20339;-48
2022/05/12 00:32:54;;;;;;;;;;;20.70;45.30;;;;;;4999816;28;19961;-49
2022/05/12 00:35:20;;;;;;;;;;;20.70;44.90;;;;;;5011894;28;19961;-52
2022/05/12 00:37:47;;;;;;;;;;;20.70;44.80;;;;;;4992447;28;20346;-49
2022/05/12 00:40:14;;;;;;;;;;;20.70;44.80;;;;;;4995000;28;19922;-51
2022/05/12 00:42:52;;;;;;;;;;;20.70;44.90;;;;;;5000704;28;20016;-50
2022/05/12 00:45:20;;;;;;;;;;;20.70;44.80;;;;;;5015769;28;19922;-54
2022/05/12 00:47:46;;;;;;;;;;;20.70;44.90;;;;;;4986898;28;19957;-54
2022/05/12 00:50:13;;;;;;;;;;;20.70;45.00;;;;;;4995590;28;20020;-50
2022/05/12 00:52:40;;;;;;;;;;;20.70;45.00;;;;;;5000713;28;19921;-49
2022/05/12 00:55:08;;;;;;;;;;;20.70;45.00;;;;;;5014874;28;19976;-51
2022/05/12 00:57:35;;;;;;;;;;;20.70;45.00;;;;;;5006614;28;19929;-52
2022/05/12 01:00:01;;;;;;;;;;;20.70;45.00;;;;;;4995958;28;19928;-51
2022/05/12 01:02:31;;;;;;;;;;;20.70;45.10;;;;;;4993034;28;20390;-51
2022/05/12 01:04:58;;;;;;;;;;;20.70;45.10;;;;;;4994545;28;19922;-54
2022/05/12 01:07:24;;;;;;;;;;;20.70;45.10;;;;;;4999460;28;20350;-49
2022/05/12 01:09:51;;;;;;;;;;;20.70;45.10;;;;;;5015701;28;19925;-53
2022/05/12 01:12:18;;;;;;;;;;;20.70;45.10;;;;;;4997764;28;19929;-52
2022/05/12 01:14:44;;;;;;;;;;;20.70;45.20;;;;;;5014115;28;19940;-53
2022/05/12 01:17:11;;;;;;;;;;;20.70;45.20;;;;;;5011719;28;19922;-55
2022/05/12 01:19:40;;;;;;;;;;;20.70;45.30;;;;;;5013890;28;19972;-54
2022/05/12 01:22:08;;;;;;;;;;;20.70;45.40;;;;;;5013018;28;19926;-51
2022/05/12 01:24:36;;;;;;;;;;;20.70;45.40;;;;;;4997055;28;19928;-50
2022/05/12 01:29:44;;;;;;;;;;;20.70;45.50;;;;;;4997536;28;19921;-49
2022/05/12 01:32:10;;;;;;;;;;;20.70;45.50;;;;;;5011931;28;19921;-51
2022/05/12 01:34:37;;;;;;;;;;;20.70;45.60;;;;;;5014988;28;19921;-54
2022/05/12 01:37:04;;;;;;;;;;;20.70;45.60;;;;;;4992910;28;19925;-53
2022/05/12 01:39:30;;;;;;;;;;;20.70;45.70;;;;;;4993900;28;20275;-55
2022/05/12 01:41:58;;;;;;;;;;;20.70;45.70;;;;;;4992199;28;19929;-54
2022/05/12 01:44:25;;;;;;;;;;;20.70;45.80;;;;;;4994245;28;19944;-51
2022/05/12 01:46:52;;;;;;;;;;;20.70;46.40;;;;;;4994478;28;19972;-48
2022/05/12 01:49:18;;;;;;;;;;;20.70;45.80;;;;;;4994463;28;20012;-50
2022/05/12 01:51:45;;;;;;;;;;;20.70;45.90;;;;;;4993856;28;19922;-54
2022/05/12 01:54:12;;;;;;;;;;;20.70;45.90;;;;;;4998151;28;19921;-54
2022/05/12 01:56:39;;;;;;;;;;;20.70;45.90;;;;;;4997526;28;19921;-52
2022/05/12 01:59:07;;;;;;;;;;;20.70;45.90;;;;;;5014806;28;19921;-54
2022/05/12 02:01:33;;;;;;;;;;;20.70;46.00;;;;;;5012605;28;19960;-54
2022/05/12 02:04:01;;;;;;;;;;;20.70;46.00;;;;;;4995150;28;19961;-51
2022/05/12 02:06:28;;;;;;;;;;;20.70;46.00;;;;;;5013278;28;19936;-54
2022/05/12 02:08:54;;;;;;;;;;;20.70;46.00;;;;;;5011227;28;20432;-54
2022/05/12 02:11:21;;;;;;;;;;;20.70;46.00;;;;;;5015235;28;19921;-50
2022/05/12 02:13:48;;;;;;;;;;;20.70;45.90;;;;;;5013064;28;19968;-50
2022/05/12 02:16:16;;;;;;;;;;;20.70;45.90;;;;;;4996968;28;20008;-51
2022/05/12 02:18:43;;;;;;;;;;;20.70;45.80;;;;;;5011425;28;20388;-52
2022/05/12 02:21:09;;;;;;;;;;;20.70;45.80;;;;;;5014681;28;19921;-52
2022/05/12 02:23:36;;;;;;;;;;;20.60;45.70;;;;;;4996731;28;19922;-53
2022/05/12 02:26:02;;;;;;;;;;;20.60;45.60;;;;;;4995051;28;20024;-49
2022/05/12 02:28:29;;;;;;;;;;;20.60;45.60;;;;;;4994300;28;19921;-50
2022/05/12 02:30:56;;;;;;;;;;;20.60;45.50;;;;;;4993360;28;20290;-54
2022/05/12 02:33:24;;;;;;;;;;;20.60;45.50;;;;;;4993544;28;20327;-52
2022/05/12 02:35:51;;;;;;;;;;;20.60;45.50;;;;;;4993537;28;19990;-49
2022/05/12 02:38:17;;;;;;;;;;;20.60;45.40;;;;;;4998708;28;20374;-54
2022/05/12 02:40:44;;;;;;;;;;;20.60;45.40;;;;;;4977299;28;19937;-53
2022/05/12 02:43:24;;;;;;;;;;;20.60;45.50;;;;;;4995345;28;19997;-50
2022/05/12 02:45:51;;;;;;;;;;;20.50;45.50;;;;;;4993457;28;20355;-48
2022/05/12 02:48:18;;;;;;;;;;;20.50;45.60;;;;;;5004698;28;19921;-52
2022/05/12 02:50:46;;;;;;;;;;;20.50;45.60;;;;;;5012327;28;19921;-52
2022/05/12 02:53:13;;;;;;;;;;;20.50;45.70;;;;;;4994930;28;19943;-50
2022/05/12 02:55:39;;;;;;;;;;;20.40;45.70;;;;;;5013282;28;19928;-49
2022/05/12 02:58:06;;;;;;;;;;;20.40;45.50;;;;;;4997253;28;20377;-53
2022/05/12 03:00:33;;;;;;;;;;;20.40;45.60;;;;;;4997958;28;19965;-51
2022/05/12 03:03:00;;;;;;;;;;;20.30;45.50;;;;;;5001155;28;19921;-50
2022/05/12 03:05:26;;;;;;;;;;;20.30;45.50;;;;;;5017561;28;19957;-51
2022/05/12 03:07:54;;;;;;;;;;;20.30;45.50;;;;;;4986874;28;20371;-50
2022/05/12 03:10:23;;;;;;;;;;;20.30;45.40;;;;;;4997394;28;20237;-48
2022/05/12 03:12:50;;;;;;;;;;;20.30;45.40;;;;;;4997309;28;20021;-49
2022/05/12 03:15:17;;;;;;;;;;;20.30;45.30;;;;;;4997834;28;20275;-51
2022/05/12 03:17:44;;;;;;;;;;;20.30;45.30;;;;;;4997290;28;20333;-50
2022/05/12 03:20:11;;;;;;;;;;;20.20;45.20;;;;;;4997673;28;19928;-49
2022/05/12 03:22:38;;;;;;;;;;;20.30;45.30;;;;;;4995555;28;20249;-51
2022/05/12 03:25:09;;;;;;;;;;;20.30;45.20;;;;;;4998333;28;19922;-49
2022/05/12 03:27:35;;;;;;;;;;;20.30;45.20;;;;;;4994480;28;19922;-48
2022/05/12 03:30:02;;;;;;;;;;;20.30;45.10;;;;;;4997291;28;19922;-48
2022/05/12 03:32:29;;;;;;;;;;;20.30;45.10;;;;;;5000772;28;19968;-50
2022/05/12 03:34:58;;;;;;;;;;;20.30;45.10;;;;;;5017928;28;20355;-51
2022/05/12 03:37:25;;;;;;;;;;;20.20;45.00;;;;;;5014736;28;19921;-51
2022/05/12 03:39:52;;;;;;;;;;;20.20;45.00;;;;;;5013506;28;20016;-52
2022/05/12 03:42:20;;;;;;;;;;;20.20;45.00;;;;;;5014886;28;20333;-50
2022/05/12 03:44:50;;;;;;;;;;;20.20;45.00;;;;;;4999691;28;19921;-51
2022/05/12 03:47:19;;;;;;;;;;;20.20;45.00;;;;;;4997739;28;19976;-50
2022/05/12 03:49:46;;;;;;;;;;;20.20;44.90;;;;;;4999308;28;20283;-53
2022/05/12 03:52:12;;;;;;;;;;;20.20;44.90;;;;;;4997353;28;19928;-49
2022/05/12 03:54:39;;;;;;;;;;;20.20;44.90;;;;;;5017072;28;19964;-48
2022/05/12 03:57:06;;;;;;;;;;;20.20;44.90;;;;;;5015427;28;20305;-49
2022/05/12 03:59:34;;;;;;;;;;;20.20;44.80;;;;;;4998918;28;19957;-49
2022/05/12 04:02:01;;;;;;;;;;;20.20;44.80;;;;;;4996805;28;19928;-54
2022/05/12 04:04:28;;;;;;;;;;;20.20;44.80;;;;;;4996688;28;19969;-54
2022/05/12 04:06:55;;;;;;;;;;;20.20;44.80;;;;;;4977663;28;19925;-49
2022/05/12 04:09:21;;;;;;;;;;;20.20;44.70;;;;;;5007940;28;19928;-49
2022/05/12 04:11:48;;;;;;;;;;;20.20;44.70;;;;;;4998707;28;19975;-54
2022/05/12 04:14:15;;;;;;;;;;;20.20;44.70;;;;;;5014540;28;20282;-52
2022/05/12 04:16:44;;;;;;;;;;;20.20;44.60;;;;;;5015189;28;20270;-48
2022/05/12 04:19:11;;;;;;;;;;;20.20;44.60;;;;;;5012190;28;20374;-48
2022/05/12 04:21:38;;;;;;;;;;;20.20;44.60;;;;;;5016229;28;19961;-49
2022/05/12 04:24:05;;;;;;;;;;;20.20;44.50;;;;;;5013744;28;20255;-51
2022/05/12 04:26:32;;;;;;;;;;;20.10;44.40;;;;;;4999169;28;19952;-55
2022/05/12 04:28:59;;;;;;;;;;;20.10;44.40;;;;;;4998938;28;19921;-51
2022/05/12 04:31:25;;;;;;;;;;;20.10;44.30;;;;;;5015889;28;19921;-49
2022/05/12 04:36:38;;;;;;;;;;;20.10;44.30;;;;;;4995963;28;19928;-49
2022/05/12 04:39:05;;;;;;;;;;;20.10;44.10;;;;;;4995975;28;19930;-52
2022/05/12 04:41:31;;;;;;;;;;;20.10;44.10;;;;;;4979463;28;20259;-48
2022/05/12 04:43:58;;;;;;;;;;;20.10;44.10;;;;;;4994485;28;20375;-54
2022/05/12 04:46:25;;;;;;;;;;;20.10;44.10;;;;;;4995616;28;19948;-51
2022/05/12 04:48:52;;;;;;;;;;;20.10;44.00;;;;;;5015846;28;19941;-50
2022/05/12 04:51:20;;;;;;;;;;;20.10;44.00;;;;;;5034141;28;20358;-53
2022/05/12 04:53:46;;;;;;;;;;;20.00;43.90;;;;;;4979563;28;20008;-51
2022/05/12 04:56:13;;;;;;;;;;;20.10;44.10;;;;;;4995244;28;19973;-50
2022/05/12 04:58:40;;;;;;;;;;;20.10;44.10;;;;;;5008937;28;19921;-53
2022/05/12 05:01:06;;;;;;;;;;;20.00;44.00;;;;;;5015671;28;20012;-49
2022/05/12 05:03:33;;;;;;;;;;;20.00;44.00;;;;;;5011858;28;20340;-48
2022/05/12 05:06:00;;;;;;;;;;;20.00;43.90;;;;;;4997883;28;20260;-52
2022/05/12 05:08:28;;;;;;;;;;;20.00;43.90;;;;;;5002018;28;19971;-53
2022/05/12 05:10:54;;;;;;;;;;;20.00;43.90;;;;;;4995680;28;19957;-50
2022/05/12 05:13:21;;;;;;;;;;;20.00;43.90;;;;;;4994812;28;19921;-48
2022/05/12 05:15:48;;;;;;;;;;;20.00;43.80;;;;;;4995184;28;19922;-49
2022/05/12 05:18:16;;;;;;;;;;;20.00;43.80;;;;;;4978161;28;20012;-54
2022/05/12 05:20:43;;;;;;;;;;;20.00;43.80;;;;;;4994131;28;19921;-52
2022/05/12 05:23:10;;;;;;;;;;;20.00;43.80;;;;;;4992341;28;19922;-48
2022/05/12 05:25:38;;;;;;;;;;;20.00;43.80;;;;;;4995436;28;19928;-50
2022/05/12 05:28:05;;;;;;;;;;;20.00;43.80;;;;;;4976012;28;19972;-53
2022/05/12 05:30:32;;;;;;;;;;;20.00;43.80;;;;;;4994103;28;20020;-50
2022/05/12 05:32:59;;;;;;;;;;;20.00;43.80;;;;;;5002673;28;19921;-51
2022/05/12 05:35:26;;;;;;;;;;;20.00;43.90;;;;;;4997674;28;20282;-50
2022/05/12 05:37:53;;;;;;;;;;;20.00;43.90;;;;;;5013615;28;19921;-51
2022/05/12 05:40:20;;;;;;;;;;;20.00;43.90;;;;;;5013450;28;20313;-50
2022/05/12 05:42:48;;;;;;;;;;;20.00;43.80;;;;;;5021463;28;19979;-50
2022/05/12 05:45:17;;;;;;;;;;;20.00;43.90;;;;;;5016576;28;20023;-48
2022/05/12 05:47:45;;;;;;;;;;;20.00;43.80;;;;;;5034521;28;19925;-54
2022/05/12 05:50:12;;;;;;;;;;;20.00;43.80;;;;;;5032962;28;20011;-51
2022/05/12 05:55:23;;;;;;;;;;;20.00;43.80;;;;;;5032967;28;19922;-48
2022/05/12 05:57:51;;;;;;;;;;;20.00;43.80;;;;;;5006230;28;20009;-49
2022/05/12 06:00:19;;;;;;;;;;;20.00;43.70;;;;;;4996745;28;19921;-49
2022/05/12 06:02:46;;;;;;;;;;;20.00;43.70;;;;;;5014164;28;19922;-50
2022/05/12 06:05:17;;;;;;;;;;;20.00;43.70;;;;;;5012869;28;20016;-51
2022/05/12 06:07:43;;;;;;;;;;;20.00;43.70;;;;;;5013206;28;19921;-50
2022/05/12 06:10:10;;;;;;;;;;;20.00;43.70;;;;;;5014615;28;19922;-49
2022/05/12 06:12:37;;;;;;;;;;;20.00;43.70;;;;;;5011573;28;20020;-49
2022/05/12 06:15:06;;;;;;;;;;;20.00;43.70;;;;;;4996774;28;19928;-49
2022/05/12 06:17:33;;;;;;;;;;;20.00;43.70;;;;;;5010555;28;20359;-52
2022/05/12 06:20:00;;;;;;;;;;;20.00;43.70;;;;;;4997332;28;19922;-49
2022/05/12 06:22:27;;;;;;;;;;;20.00;43.70;;;;;;5012982;28;19922;-51
2022/05/12 06:24:54;;;;;;;;;;;20.00;43.70;;;;;;5013008;28;20343;-52
2022/05/12 06:27:22;;;;;;;;;;;20.00;43.70;;;;;;5012141;28;19926;-48
2022/05/12 06:29:49;;;;;;;;;;;20.00;43.60;;;;;;4996774;28;19971;-54
2022/05/12 06:32:17;;;;;;;;;;;20.00;43.60;;;;;;4997213;28;19932;-53
2022/05/12 06:34:45;;;;;;;;;;;20.00;43.60;;;;;;5014238;28;19922;-51
2022/05/12 06:37:12;;;;;;;;;;;20.00;43.60;;;;;;5017356;28;19922;-51
2022/05/12 06:39:39;;;;;;;;;;;20.00;43.50;;;;;;5000706;28;19921;-51
2022/05/12 06:42:05;;;;;;;;;;;20.00;43.50;;;;;;5015459;28;19921;-49
2022/05/12 06:44:32;;;;;;;;;;;20.00;43.60;;;;;;5002595;28;19987;-51
2022/05/12 06:46:59;;;;;;;;;;;20.00;43.60;;;;;;5019899;28;19921;-51
2022/05/12 06:49:28;;;;;;;;;;;20.00;43.50;;;;;;5037650;28;19979;-55
2022/05/12 06:51:55;;;;;;;;;;;20.00;43.50;;;;;;5019663;28;19921;-52
2022/05/12 06:54:22;;;;;;;;;;;20.00;43.50;;;;;;5036791;28;19967;-48
2022/05/12 06:56:49;;;;;;;;;;;20.00;43.50;;;;;;5017618;28;20262;-50
2022/05/12 06:59:16;;;;;;;;;;;20.00;43.50;;;;;;4997380;28;20120;-51
2022/05/12 07:01:43;;;;;;;;;;;20.00;43.50;;;;;;4995595;28;19925;-52
2022/05/12 07:04:09;;;;;;;;;;;20.00;43.50;;;;;;5011388;28;19922;-52
2022/05/12 07:06:37;;;;;;;;;;;20.00;43.60;;;;;;5017158;28;19925;-52
2022/05/12 07:09:04;;;;;;;;;;;20.00;43.60;;;;;;4998751;28;19936;-51
2022/05/12 07:11:31;;;;;;;;;;;20.00;43.60;;;;;;4999347;28;19928;-50
2022/05/12 07:13:58;;;;;;;;;;;20.00;43.60;;;;;;5015071;28;19964;-53
2022/05/12 07:16:24;;;;;;;;;;;20.10;43.70;;;;;;5016549;28;19971;-50
2022/05/12 07:18:51;;;;;;;;;;;20.00;43.50;;;;;;4999495;28;19922;-51
2022/05/12 07:26:48;;;;;;;;;;;20.10;43.50;;;;;;4998736;28;19925;-51
2022/05/12 07:29:15;;;;;;;;;;;20.10;43.50;;;;;;5015917;28;19984;-53
2022/05/12 07:31:42;;;;;;;;;;;20.10;43.50;;;;;;5016062;28;20024;-51
2022/05/12 07:34:10;;;;;;;;;;;20.10;43.50;;;;;;4998576;28;19929;-52
2022/05/12 07:36:37;;;;;;;;;;;20.10;43.50;;;;;;4998360;28;19925;-51
2022/05/12 07:39:05;;;;;;;;;;;20.10;43.40;;;;;;5016012;28;19921;-53
2022/05/12 07:41:32;;;;;;;;;;;20.10;43.40;;;;;;4998395;28;19928;-53
2022/05/12 07:43:59;;;;;;;;;;;20.10;43.40;;;;;;4998487;28;19921;-55
2022/05/12 07:46:27;;;;;;;;;;;20.10;43.30;;;;;;4999238;28;20015;-52
2022/05/12 07:48:53;;;;;;;;;;;20.10;43.20;;;;;;4997603;28;19961;-54
2022/05/12 07:51:20;;;;;;;;;;;20.10;43.20;;;;;;4998879;28;20457;-55
2022/05/12 07:53:47;;;;;;;;;;;20.10;43.20;;;;;;4999111;28;19925;-54
2022/05/12 07:56:15;;;;;;;;;;;20.10;43.20;;;;;;4997997;28;19921;-52
2022/05/12 07:58:42;;;;;;;;;;;20.10;43.20;;;;;;4997990;28;19932;-52
2022/05/12 08:01:10;;;;;;;;;;;20.10;43.20;;;;;;5015678;28;20012;-52
2022/05/12 08:03:37;;;;;;;;;;;20.10;43.10;;;;;;5014266;28;19930;-50
2022/05/12 08:06:04;;;;;;;;;;;20.10;43.20;;;;;;4997844;28;19925;-54
2022/05/12 08:08:30;;;;;;;;;;;20.10;43.20;;;;;;4998151;28;19956;-54
2022/05/12 08:10:57;;;;;;;;;;;20.10;43.20;;;;;;5015404;28;19983;-53
2022/05/12 08:13:25;;;;;;;;;;;20.10;43.20;;;;;;5014585;28;20394;-54
2022/05/12 08:15:52;;;;;;;;;;;20.10;43.10;;;;;;4998202;28;20302;-50
2022/05/12 08:18:18;;;;;;;;;;;20.10;43.10;;;;;;4998226;28;20362;-52
2022/05/12 08:20:45;;;;;;;;;;;20.10;43.10;;;;;;4997434;28;19961;-54
2022/05/12 08:23:12;;;;;;;;;;;20.10;43.10;;;;;;4997048;28;19932;-52
2022/05/12 08:25:39;;;;;;;;;;;20.10;43.00;;;;;;5015471;28;20306;-52
2022/05/12 08:28:05;;;;;;;;;;;20.10;43.00;;;;;;4997067;28;19921;-53
2022/05/12 08:30:33;;;;;;;;;;;20.10;43.00;;;;;;4997840;28;19921;-50
2022/05/12 08:33:00;;;;;;;;;;;20.10;42.90;;;;;;4997194;28;19992;-50
2022/05/12 08:38:21;;;;;;;;;;;20.10;43.00;;;;;;5100818;23;20065;-52
2022/05/12 08:40:49;;;;;;;;;;;20.20;43.00;;;;;;5093065;28;20057;-55
2022/05/12 08:43:17;;;;;;;;;;;20.20;42.90;;;;;;5090587;28;19931;-52
2022/05/12 08:45:45;;;;;;;;;;;20.20;42.90;;;;;;5093901;28;19920;-50
2022/05/12 08:48:12;;;;;;;;;;;20.20;42.90;;;;;;5110321;28;19920;-54
2022/05/12 08:50:40;;;;;;;;;;;20.20;42.80;;;;;;5110023;28;19924;-55
2022/05/12 08:53:10;;;;;;;;;;;20.20;42.70;;;;;;5093495;28;19924;-52
2022/05/12 08:55:41;;;;;;;;;;;20.20;42.70;;;;;;5093292;28;20019;-51
2022/05/12 08:58:08;;;;;;;;;;;20.20;42.60;;;;;;5110618;28;20023;-55
2022/05/12 09:00:41;;;;;;;;;;;20.20;42.60;;;;;;5110422;28;19965;-55
2022/05/12 09:03:11;;;;;;;;;;;20.20;42.60;;;;;;5110723;28;19920;-51
2022/05/12 09:05:40;;;;;;;;;;;20.20;42.50;;;;;;5109929;28;19931;-51
2022/05/12 09:08:08;;;;;;;;;;;20.20;42.60;;;;;;5093321;28;19997;-51
2022/05/12 09:10:41;;;;;;;;;;;20.20;42.50;;;;;;5094524;28;20010;-52
2022/05/12 09:13:10;;;;;;;;;;;20.20;42.50;;;;;;5094368;28;19924;-55
2022/05/12 09:15:37;;;;;;;;;;;20.20;42.50;;;;;;5094637;28;20357;-50
2022/05/12 09:18:04;;;;;;;;;;;20.20;42.40;;;;;;5110048;28;19971;-51
2022/05/12 09:20:33;;;;;;;;;;;20.20;42.40;;;;;;5092540;28;20307;-51
2022/05/12 09:23:00;;;;;;;;;;;20.20;42.30;;;;;;5079187;28;19974;-48
2022/05/12 09:25:31;;;;;;;;;;;20.20;42.30;;;;;;5073264;28;20038;-50
2022/05/12 09:27:58;;;;;;;;;;;20.20;42.20;;;;;;5093823;28;20360;-48
2022/05/12 09:30:30;;;;;;;;;;;20.20;42.10;;;;;;5076321;28;19920;-52
2022/05/12 09:32:57;;;;;;;;;;;20.20;42.10;;;;;;5093825;28;20456;-52
2022/05/12 09:35:24;;;;;;;;;;;20.20;42.00;;;;;;5075038;28;20403;-52
2022/05/12 09:37:54;;;;;;;;;;;20.20;42.00;;;;;;5075148;28;20125;-55
2022/05/12 09:40:22;;;;;;;;;;;20.20;42.10;;;;;;5075369;28;19920;-55
2022/05/12 09:42:49;;;;;;;;;;;20.20;42.10;;;;;;5075285;28;20010;-53
2022/05/12 09:45:20;;;;;;;;;;;20.20;42.10;;;;;;5093468;28;20333;-53
2022/05/12 09:47:46;;;;;;;;;;;20.20;42.20;;;;;;5075401;28;19959;-55
2022/05/12 09:50:17;;;;;;;;;;;20.30;42.20;;;;;;5076019;28;19920;-54
2022/05/12 09:52:43;;;;;;;;;;;20.30;42.30;;;;;;5076031;28;20275;-53
2022/05/12 09:55:13;;;;;;;;;;;20.30;42.30;;;;;;5093591;28;19931;-54
2022/05/12 09:57:45;;;;;;;;;;;20.30;42.30;;;;;;5074808;28;19999;-51
2022/05/12 10:00:12;;;;;;;;;;;20.30;42.40;;;;;;5075613;28;19920;-54
2022/05/12 10:08:18;;;;;;;;;;;20.40;42.50;;;;;;5058743;28;19982;-54
2022/05/12 10:10:46;;;;;;;;;;;20.40;42.50;;;;;;5074491;28;19920;-54
2022/05/12 10:13:16;;;;;;;;;;;20.40;42.50;;;;;;5075257;28;20017;-54
2022/05/12 10:15:43;;;;;;;;;;;20.40;42.50;;;;;;5075409;28;20015;-55
2022/05/12 10:18:13;;;;;;;;;;;20.40;42.50;;;;;;5074912;28;19928;-53
2022/05/12 10:20:42;;;;;;;;;;;20.40;42.50;;;;;;5074968;28;19920;-53
2022/05/12 10:23:09;;;;;;;;;;;20.40;42.50;;;;;;5074629;28;20284;-52
2022/05/12 10:25:56;;;;;;;;;;;20.50;42.60;;;;;;5075427;28;19927;-53
2022/05/12 10:28:24;;;;;;;;;;;20.50;42.60;;;;;;5093463;28;19920;-53
2022/05/12 10:30:52;;;;;;;;;;;20.50;42.60;;;;;;5092776;28;19920;-55
2022/05/12 10:33:22;;;;;;;;;;;20.50;42.60;;;;;;5074744;28;19924;-49
2022/05/12 10:35:49;;;;;;;;;;;20.50;42.60;;;;;;5075066;28;20408;-53
2022/05/12 10:38:18;;;;;;;;;;;20.50;42.60;;;;;;5093934;28;19946;-50
2022/05/12 10:40:46;;;;;;;;;;;20.50;42.50;;;;;;5075321;28;19970;-52
2022/05/12 10:43:17;;;;;;;;;;;20.50;42.50;;;;;;5076034;28;19935;-52
2022/05/12 10:45:45;;;;;;;;;;;20.50;42.50;;;;;;5093456;28;19920;-55
2022/05/12 10:48:18;;;;;;;;;;;20.50;42.50;;;;;;5075277;28;20018;-53
2022/05/12 10:50:47;;;;;;;;;;;20.50;42.50;;;;;;5093148;28;19970;-48
2022/05/12 10:53:16;;;;;;;;;;;20.50;42.50;;;;;;5074593;28;19999;-48
2022/05/12 10:55:43;;;;;;;;;;;20.50;42.40;;;;;;5074752;28;19943;-49
2022/05/12 10:58:19;;;;;;;;;;;20.50;42.50;;;;;;5093445;28;19924;-49
2022/05/12 11:00:49;;;;;;;;;;;20.50;42.50;;;;;;5069839;28;19920;-53
2022/05/12 11:03:19;;;;;;;;;;;20.50;42.50;;;;;;5074477;28;19924;-49
2022/05/12 11:05:46;;;;;;;;;;;20.50;42.50;;;;;;5083026;28;19927;-49
2022/05/12 11:08:14;;;;;;;;;;;20.60;42.60;;;;;;5092926;28;19920;-53
2022/05/12 11:10:42;;;;;;;;;;;20.60;42.60;;;;;;5091586;28;19966;-51
2022/05/12 11:13:10;;;;;;;;;;;20.60;42.60;;;;;;5087798;28;20443;-55
2022/05/12 11:15:44;;;;;;;;;;;20.50;43.20;;;;;;5070934;28;20015;-51
2022/05/12 11:18:12;;;;;;;;;;;20.60;42.70;;;;;;5070529;28;20318;-52
2022/05/12 11:20:40;;;;;;;;;;;20.60;42.80;;;;;;5070758;28;19921;-57
2022/05/12 11:23:12;;;;;;;;;;;20.60;42.80;;;;;;5079630;28;19963;-56
2022/05/12 11:25:41;;;;;;;;;;;20.60;42.90;;;;;;5078285;28;19947;-57
2022/05/12 11:30:57;;;;;;;;;;;20.60;42.90;;;;;;5079198;28;20368;-55
2022/05/12 11:33:29;;;;;;;;;;;20.60;42.90;;;;;;5098061;28;20018;-53
2022/05/12 11:35:55;;;;;;;;;;;20.60;42.90;;;;;;5085960;28;19943;-50
2022/05/12 11:38:42;;;;;;;;;;;20.60;43.50;;;;;;5077649;28;19996;-53
2022/05/12 11:41:17;;;;;;;;;;;20.70;43.10;;;;;;5081693;28;19981;-49
2022/05/12 11:46:35;;;;;;;;;;;20.70;43.20;;;;;;5077717;28;19927;-53
2022/05/12 11:49:02;;;;;;;;;;;20.70;43.10;;;;;;5074944;28;20336;-51
2022/05/12 11:51:32;;;;;;;;;;;20.70;42.70;;;;;;5095029;28;19920;-52
2022/05/12 11:54:01;;;;;;;;;;;20.70;42.30;;;;;;5094446;28;20363;-49
2022/05/12 11:56:33;;;;;;;;;;;20.70;42.30;;;;;;5092054;28;19959;-50
2022/05/12 11:59:12;;;;;;;;;;;20.70;42.40;;;;;;5095913;28;19924;-54
2022/05/12 12:01:50;;;;;;;;;;;20.70;42.40;;;;;;5077379;28;19920;-53
2022/05/12 12:04:17;;;;;;;;;;;20.70;42.40;;;;;;5077550;28;19921;-51
2022/05/12 12:06:45;;;;;;;;;;;20.70;42.40;;;;;;5085195;28;19930;-50
2022/05/12 12:09:31;;;;;;;;;;;20.70;42.40;;;;;;5082945;28;19920;-54
2022/05/12 12:11:58;;;;;;;;;;;20.70;42.40;;;;;;5087207;28;19927;-51
2022/05/12 12:14:43;;;;;;;;;;;20.70;42.40;;;;;;5082437;28;19959;-53
2022/05/12 12:17:13;;;;;;;;;;;20.70;42.50;;;;;;5086426;28;19934;-50
2022/05/12 12:19:46;;;;;;;;;;;20.70;42.50;;;;;;5077678;28;19920;-53
2022/05/12 12:22:18;;;;;;;;;;;20.80;42.50;;;;;;5080463;28;19920;-52
2022/05/12 12:24:53;;;;;;;;;;;20.80;42.50;;;;;;5082158;28;19986;-49
2022/05/12 12:27:30;;;;;;;;;;;20.80;42.60;;;;;;5101192;28;19970;-53
2022/05/12 12:30:12;;;;;;;;;;;20.70;42.50;;;;;;5085166;28;19951;-53
2022/05/12 12:32:40;;;;;;;;;;;20.80;42.60;;;;;;5076981;28;19952;-51
2022/05/12 12:35:11;;;;;;;;;;;20.80;42.60;;;;;;5076449;28;19926;-53
2022/05/12 12:37:42;;;;;;;;;;;20.80;42.60;;;;;;5084743;28;19920;-54
2022/05/12 12:40:27;;;;;;;;;;;20.80;42.60;;;;;;5080694;28;19920;-52
2022/05/12 12:42:53;;;;;;;;;;;20.80;42.60;;;;;;5086168;28;20012;-55
2022/05/12 12:45:20;;;;;;;;;;;20.80;42.60;;;;;;5080360;28;19930;-53
2022/05/12 12:47:52;;;;;;;;;;;20.80;42.60;;;;;;5089201;28;20048;-51
2022/05/12 12:50:22;;;;;;;;;;;20.80;42.60;;;;;;5057841;28;19920;-53
2022/05/12 12:52:50;;;;;;;;;;;20.90;42.70;;;;;;5075286;28;19956;-53
2022/05/12 12:58:02;;;;;;;;;;;20.90;42.70;;;;;;5091370;28;19942;-49
2022/05/12 13:00:33;;;;;;;;;;;20.90;42.70;;;;;;5082663;28;20007;-52
2022/05/12 13:03:01;;;;;;;;;;;20.90;42.70;;;;;;5097826;28;20361;-51
2022/05/12 13:05:28;;;;;;;;;;;20.90;42.70;;;;;;5077015;28;20023;-52
2022/05/12 13:07:56;;;;;;;;;;;20.90;42.70;;;;;;5081357;28;19998;-48
2022/05/12 13:10:22;;;;;;;;;;;20.90;42.60;;;;;;5071613;28;20264;-54
2022/05/12 13:12:53;;;;;;;;;;;20.90;42.60;;;;;;5077557;28;19975;-55
2022/05/12 13:15:20;;;;;;;;;;;20.90;42.60;;;;;;5076438;28;19927;-53
2022/05/12 13:17:49;;;;;;;;;;;20.90;42.60;;;;;;5079940;28;19920;-50
2022/05/12 13:20:18;;;;;;;;;;;20.90;42.50;;;;;;5094713;28;19924;-52
2022/05/12 13:22:45;;;;;;;;;;;20.90;42.50;;;;;;5082712;28;20018;-53
2022/05/12 13:25:12;;;;;;;;;;;21.00;42.60;;;;;;5092978;28;19920;-51
2022/05/12 13:27:40;;;;;;;;;;;21.00;42.60;;;;;;5077052;28;20011;-53
2022/05/12 13:30:07;;;;;;;;;;;20.90;42.50;;;;;;5071627;28;19985;-52
2022/05/12 13:32:38;;;;;;;;;;;20.90;42.50;;;;;;5097241;28;19974;-51
2022/05/12 13:35:09;;;;;;;;;;;21.00;42.60;;;;;;5078046;28;19942;-54
2022/05/12 13:37:43;;;;;;;;;;;21.00;42.60;;;;;;5089567;28;19951;-52
2022/05/12 13:40:12;;;;;;;;;;;21.00;42.60;;;;;;5081534;28;20044;-52
2022/05/12 13:42:41;;;;;;;;;;;21.00;42.60;;;;;;5080565;28;19932;-55
2022/05/12 13:45:09;;;;;;;;;;;21.00;42.60;;;;;;5078024;28;20332;-55
2022/05/12 13:47:35;;;;;;;;;;;21.00;42.60;;;;;;5078313;28;19920;-52
2022/05/12 13:50:05;;;;;;;;;;;21.00;42.70;;;;;;5077225;28;19927;-51
2022/05/12 13:52:47;;;;;;;;;;;21.00;42.70;;;;;;5086326;28;19978;-54
2022/05/12 13:55:19;;;;;;;;;;;21.00;42.60;;;;;;5067388;28;19966;-54
2022/05/12 13:57:46;;;;;;;;;;;21.00;42.60;;;;;;5078223;28;19920;-56
2022/05/12 14:00:20;;;;;;;;;;;21.00;42.70;;;;;;5077667;28;20292;-58
2022/05/12 14:02:47;;;;;;;;;;;21.00;42.70;;;;;;5092688;28;19926;-53
2022/05/12 14:05:15;;;;;;;;;;;21.00;42.70;;;;;;5082039;28;19920;-54
2022/05/12 14:07:42;;;;;;;;;;;21.00;42.70;;;;;;5082503;28;19928;-55
2022/05/12 14:10:13;;;;;;;;;;;21.00;42.70;;;;;;5084842;28;19924;-53
2022/05/12 14:19:13;;;;;;;;;;;21.00;42.70;;;;;;5076809;28;19920;-58
2022/05/12 14:20:57;;;;;;;;;;;21.10;42.70;;;;;;5071806;28;19920;-54
2022/05/12 14:23:23;;;;;;;;;;;21.00;42.70;;;;;;5082733;28;19920;-51
2022/05/12 14:25:50;;;;;;;;;;;21.10;42.80;;;;;;5083898;28;19924;-52
2022/05/12 14:28:19;;;;;;;;;;;21.10;42.80;;;;;;5082238;28;20272;-56
2022/05/12 14:30:46;;;;;;;;;;;21.10;42.80;;;;;;5075940;28;19974;-55
2022/05/12 14:33:13;;;;;;;;;;;21.10;42.80;;;;;;5069010;28;19987;-55
2022/05/12 14:35:41;;;;;;;;;;;21.10;42.80;;;;;;5085514;28;19978;-55
2022/05/12 14:38:08;;;;;;;;;;;21.10;42.80;;;;;;5098269;28;19927;-52
2022/05/12 14:40:35;;;;;;;;;;;21.10;42.70;;;;;;5081167;28;20258;-54
2022/05/12 14:43:02;;;;;;;;;;;21.10;42.70;;;;;;5080605;28;19924;-56
2022/05/12 14:45:30;;;;;;;;;;;21.10;42.80;;;;;;5092807;28;20241;-56
2022/05/12 14:47:59;;;;;;;;;;;21.10;42.70;;;;;;5099748;28;19927;-56
2022/05/12 14:50:26;;;;;;;;;;;21.10;42.70;;;;;;5074022;28;20014;-55
2022/05/12 14:52:52;;;;;;;;;;;21.10;42.70;;;;;;5079581;28;19920;-56
2022/05/12 14:55:20;;;;;;;;;;;21.10;42.80;;;;;;5076427;28;20007;-54
2022/05/12 14:57:47;;;;;;;;;;;21.10;42.80;;;;;;5083998;28;19919;-54